createdAt,value
2022-11-14T00:02:44.255Z,98344.06
2022-11-14T00:05:30.193Z,98344.06
2022-11-14T00:08:20.650Z,98347.91
2022-11-14T00:11:06.709Z,98342.22
2022-11-14T00:13:52.770Z,98339.00
2022-11-14T00:16:38.256Z,98336.97
2022-11-14T00:19:23.672Z,98334.44
2022-11-14T00:22:09.999Z,98334.53
2022-11-14T00:24:55.485Z,98336.19
2022-11-14T00:27:40.957Z,98331.91
2022-11-14T00:30:28.543Z,98335.88
2022-11-14T00:33:19.886Z,98328.69
2022-11-14T00:36:06.381Z,98322.00
2022-11-14T00:38:55.386Z,98328.22
2022-11-14T00:41:42.210Z,98330.13
2022-11-14T00:44:28.088Z,98337.25
2022-11-14T00:47:13.755Z,98335.06
2022-11-14T00:49:59.288Z,98327.56
2022-11-14T00:52:45.011Z,98324.06
2022-11-14T00:55:31.419Z,98321.34
2022-11-14T00:58:17.319Z,98321.13
2022-11-14T01:01:02.808Z,98318.88
2022-11-14T01:03:50.877Z,98314.47
2022-11-14T01:06:36.441Z,98310.88
2022-11-14T01:09:22.198Z,98310.75
2022-11-14T01:12:08.168Z,98303.41
2022-11-14T01:14:53.608Z,98299.16
2022-11-14T01:17:39.346Z,98303.13
2022-11-14T01:20:25.189Z,98296.94
2022-11-14T01:23:13.135Z,98292.94
2022-11-14T01:26:08.894Z,98293.94
2022-11-14T01:28:54.706Z,98289.25
2022-11-14T01:31:40.514Z,98284.03
2022-11-14T01:34:26.634Z,98282.44
2022-11-14T01:37:12.614Z,98275.25
2022-11-14T01:39:58.550Z,98268.84
2022-11-14T01:43:19.270Z,98270.81
2022-11-14T01:46:07.407Z,98268.25
2022-11-14T01:48:58.614Z,98255.19
2022-11-14T01:51:51.299Z,98256.75
2022-11-14T01:54:43.309Z,98252.38
2022-11-14T01:57:43.221Z,98249.91
2022-11-14T02:00:29.200Z,98259.75
2022-11-14T02:03:16.550Z,98255.34
2022-11-14T02:06:04.777Z,98247.28
2022-11-14T02:08:52.446Z,98251.31
2022-11-14T02:11:46.448Z,98249.53
2022-11-14T02:14:33.546Z,98249.94
2022-11-14T02:17:29.426Z,98240.91
2022-11-14T02:20:20.896Z,98239.72
2022-11-14T02:23:06.746Z,98237.13
2022-11-14T02:25:52.661Z,98237.72
2022-11-14T02:28:38.502Z,98226.03
2022-11-14T02:31:24.554Z,98241.13
2022-11-14T02:34:10.461Z,98231.69
2022-11-14T02:36:57.098Z,98235.06
2022-11-14T02:39:43.016Z,98230.66
2022-11-14T02:42:28.696Z,98227.19
2022-11-14T02:45:14.660Z,98229.00
2022-11-14T02:48:00.616Z,98221.59
2022-11-14T02:50:49.659Z,98223.59
2022-11-14T02:53:35.435Z,98226.41
2022-11-14T02:56:21.503Z,98231.66
2022-11-14T02:59:07.441Z,98226.41
2022-11-14T03:01:53.085Z,98227.81
2022-11-14T03:04:39.181Z,98228.63
2022-11-14T03:07:24.762Z,98220.78
2022-11-14T03:10:11.316Z,98219.59
2022-11-14T03:12:57.680Z,98219.59
2022-11-14T03:15:43.522Z,98221.00
2022-11-14T03:18:29.432Z,98205.50
2022-11-14T03:21:19.258Z,98212.97
2022-11-14T03:24:05.617Z,98223.63
2022-11-14T03:26:51.930Z,98218.97
2022-11-14T03:29:37.606Z,98221.75
2022-11-14T03:32:23.225Z,98223.97
2022-11-14T03:35:10.298Z,98215.72
2022-11-14T03:37:56.918Z,98210.69
2022-11-14T03:40:42.892Z,98213.31
2022-11-14T03:43:33.823Z,98218.72
2022-11-14T03:46:19.982Z,98211.66
2022-11-14T03:49:05.717Z,98204.22
2022-11-14T03:51:51.401Z,98205.59
2022-11-14T03:54:38.279Z,98201.56
2022-11-14T03:57:24.140Z,98194.75
2022-11-14T04:00:10.901Z,98200.84
2022-11-14T04:02:57.829Z,98200.44
2022-11-14T04:05:47.065Z,98194.81
2022-11-14T04:08:33.297Z,98198.03
2022-11-14T04:11:19.930Z,98190.56
2022-11-14T04:14:05.933Z,98196.34
2022-11-14T04:16:51.813Z,98186.75
2022-11-14T04:19:37.787Z,98188.56
2022-11-14T04:22:23.769Z,98184.34
2022-11-14T04:25:10.038Z,98176.31
2022-11-14T04:27:55.700Z,98183.50
2022-11-14T04:30:42.508Z,98176.22
2022-11-14T04:33:28.768Z,98168.47
2022-11-14T04:36:14.744Z,98174.28
2022-11-14T04:39:01.436Z,98165.81
2022-11-14T04:41:47.129Z,98175.22
2022-11-14T04:44:33.052Z,98175.28
2022-11-14T04:47:19.152Z,98178.09
2022-11-14T04:50:05.848Z,98181.13
2022-11-14T04:52:53.669Z,98174.09
2022-11-14T04:55:39.367Z,98168.09
2022-11-14T04:58:25.208Z,98168.69
2022-11-14T05:01:13.694Z,98174.91
2022-11-14T05:03:59.574Z,98174.91
2022-11-14T05:06:45.297Z,98169.91
2022-11-14T05:09:31.317Z,98172.72
2022-11-14T05:12:17.245Z,98174.13
2022-11-14T05:15:02.700Z,98178.94
2022-11-14T05:17:48.264Z,98179.13
2022-11-14T05:20:34.102Z,98175.69
2022-11-14T05:23:24.473Z,98184.38
2022-11-14T05:26:14.785Z,98181.34
2022-11-14T05:29:00.866Z,98181.56
2022-11-14T05:31:46.697Z,98183.13
2022-11-14T05:34:32.613Z,98187.53
2022-11-14T05:37:18.283Z,98184.50
2022-11-14T05:40:05.785Z,98178.69
2022-11-14T05:42:56.694Z,98186.13
2022-11-14T05:45:42.405Z,98180.06
2022-11-14T05:48:28.973Z,98189.09
2022-11-14T05:51:15.383Z,98182.66
2022-11-14T05:54:01.055Z,98186.72
2022-11-14T05:56:47.089Z,98183.75
2022-11-14T05:59:32.603Z,98184.31
2022-11-14T06:02:18.248Z,98184.50
2022-11-14T06:05:04.357Z,98180.69
2022-11-14T06:07:57.354Z,98187.53
2022-11-14T06:10:42.869Z,98186.75
2022-11-14T06:13:28.520Z,98188.16
2022-11-14T06:16:18.050Z,98190.56
2022-11-14T06:19:05.392Z,98192.38
2022-11-14T06:21:51.633Z,98195.59
2022-11-14T06:24:37.714Z,98182.50
2022-11-14T06:27:25.172Z,98189.34
2022-11-14T06:30:12.041Z,98189.97
2022-11-14T06:33:01.334Z,98185.91
2022-11-14T06:35:46.890Z,98197.81
2022-11-14T06:38:36.104Z,98193.19
2022-11-14T06:41:23.236Z,98193.59
2022-11-14T06:44:09.768Z,98195.59
2022-11-14T06:46:56.641Z,98186.34
2022-11-14T06:49:42.725Z,98190.97
2022-11-14T06:52:28.697Z,98189.75
2022-11-14T06:55:14.239Z,98184.38
2022-11-14T06:57:59.784Z,98183.56
2022-11-14T07:00:45.200Z,98182.78
2022-11-14T07:03:31.297Z,98199.09
2022-11-14T07:06:23.360Z,98194.63
2022-11-14T07:09:10.943Z,98196.31
2022-11-14T07:11:56.638Z,98190.00
2022-11-14T07:14:43.484Z,98181.06
2022-11-14T07:17:31.416Z,98189.13
2022-11-14T07:20:20.706Z,98196.94
2022-11-14T07:23:06.186Z,98195.56
2022-11-14T07:25:52.163Z,98186.22
2022-11-14T07:28:45.919Z,98187.28
2022-11-14T07:31:33.859Z,98201.22
2022-11-14T07:34:19.728Z,98185.88
2022-11-14T07:37:05.749Z,98199.34
2022-11-14T07:39:51.817Z,98193.63
2022-11-14T07:42:37.806Z,98188.97
2022-11-14T07:45:23.538Z,98184.75
2022-11-14T07:48:09.328Z,98186.56
2022-11-14T07:51:03.835Z,98188.13
2022-11-14T07:53:55.932Z,98186.47
2022-11-14T07:56:41.390Z,98187.63
2022-11-14T07:59:26.978Z,98188.13
2022-11-14T08:02:14.689Z,98179.03
2022-11-14T08:05:01.411Z,98180.03
2022-11-14T08:07:50.258Z,98171.81
2022-11-14T08:10:35.995Z,98172.66
2022-11-14T08:13:36.637Z,98160.44
2022-11-14T08:16:22.596Z,98170.78
2022-11-14T08:19:08.455Z,98173.47
2022-11-14T08:21:54.418Z,98163.13
2022-11-14T08:24:40.510Z,98166.50
2022-11-14T08:27:26.467Z,98167.44
2022-11-14T08:30:13.273Z,98154.75
2022-11-14T08:33:03.536Z,98168.25
2022-11-14T08:35:49.287Z,98162.53
2022-11-14T08:38:35.417Z,98162.88
2022-11-14T08:41:21.592Z,98154.38
2022-11-14T08:44:07.362Z,98164.13
2022-11-14T08:46:53.229Z,98153.47
2022-11-14T08:49:38.898Z,98147.50
2022-11-14T08:52:24.737Z,98157.69
2022-11-14T08:55:10.719Z,98163.00
2022-11-14T08:57:56.257Z,98155.47
2022-11-14T09:00:42.465Z,98161.56
2022-11-14T09:03:28.167Z,98158.50
2022-11-14T09:06:14.099Z,98161.69
2022-11-14T09:09:00.177Z,98162.88
2022-11-14T09:11:45.573Z,98156.47
2022-11-14T09:14:31.232Z,98161.13
2022-11-14T09:17:17.273Z,98153.50
2022-11-14T09:20:03.508Z,98158.75
2022-11-14T09:22:52.170Z,98140.03
2022-11-14T09:25:38.702Z,98145.81
2022-11-14T09:28:25.063Z,98141.44
2022-11-14T09:31:13.522Z,98132.34
2022-11-14T09:33:59.088Z,98126.81
2022-11-14T09:36:45.135Z,98118.88
2022-11-14T09:39:31.055Z,98123.09
2022-11-14T09:42:44.271Z,98113.47
2022-11-14T09:45:31.000Z,98099.75
2022-11-14T09:48:22.523Z,98101.47
2022-11-14T09:51:16.176Z,98104.56
2022-11-14T09:54:29.471Z,98091.06
2022-11-14T09:57:21.059Z,98082.38
2022-11-14T10:00:19.309Z,98081.28
2022-11-14T10:04:08.325Z,98073.38
2022-11-14T10:07:42.740Z,98065.94
2022-11-14T10:10:39.454Z,98055.66
2022-11-14T10:14:00.888Z,98051.38
2022-11-14T10:17:12.846Z,98045.28
2022-11-14T10:20:32.760Z,98037.66
2022-11-14T10:23:30.813Z,98035.16
2022-11-14T10:26:31.399Z,98032.09
2022-11-14T10:29:41.233Z,98035.03
2022-11-14T10:33:18.275Z,98039.13
2022-11-14T10:36:15.533Z,98030.63
2022-11-14T10:39:41.690Z,98028.69
2022-11-14T10:42:40.334Z,98023.44
2022-11-14T10:45:38.999Z,98018.47
2022-11-14T10:48:49.091Z,98022.16
2022-11-14T10:51:44.909Z,98019.28
2022-11-14T10:55:00.232Z,98024.47
2022-11-14T10:57:46.617Z,98015.94
2022-11-14T11:00:32.515Z,98011.31
2022-11-14T11:03:18.424Z,98015.81
2022-11-14T11:06:04.239Z,98016.44
2022-11-14T11:09:08.833Z,98014.56
2022-11-14T11:11:59.025Z,98008.56
2022-11-14T11:14:46.320Z,98003.00
2022-11-14T11:17:38.543Z,97999.03
2022-11-14T11:20:36.159Z,97997.31
2022-11-14T11:23:31.893Z,97996.16
2022-11-14T11:26:28.791Z,97985.56
2022-11-14T11:29:18.403Z,97983.75
2022-11-14T11:32:04.662Z,97979.31
2022-11-14T11:34:52.159Z,97976.91
2022-11-14T11:37:56.040Z,97964.78
2022-11-14T11:40:47.930Z,97962.22
2022-11-14T11:43:41.432Z,97959.13
2022-11-14T11:46:47.040Z,97963.91
2022-11-14T11:49:53.850Z,97964.84
2022-11-14T11:53:05.682Z,97956.66
2022-11-14T11:56:00.289Z,97953.53
2022-11-14T11:58:59.011Z,97945.94
2022-11-14T12:01:44.937Z,97950.38
2022-11-14T12:04:31.472Z,97943.88
2022-11-14T12:07:30.222Z,97939.72
2022-11-14T12:10:28.954Z,97941.41
2022-11-14T12:14:05.319Z,97938.25
2022-11-14T12:17:39.730Z,97932.31
2022-11-14T12:20:53.105Z,97927.63
2022-11-14T12:24:23.691Z,97923.41
2022-11-14T12:27:22.499Z,97922.06
2022-11-14T12:30:24.638Z,97918.03
2022-11-14T12:33:17.379Z,97925.53
2022-11-14T12:36:10.055Z,97918.16
2022-11-14T12:38:57.218Z,97919.44
2022-11-14T12:41:43.226Z,97904.91
2022-11-14T12:44:29.168Z,97909.00
2022-11-14T12:47:29.028Z,97893.75
2022-11-14T12:50:38.924Z,97895.03
2022-11-14T12:53:35.978Z,97888.56
2022-11-14T12:56:31.017Z,97887.69
2022-11-14T12:59:53.456Z,97884.88
2022-11-14T13:03:11.566Z,97887.13
2022-11-14T13:06:09.613Z,97883.31
2022-11-14T13:09:22.791Z,97876.03
2022-11-14T13:13:23.127Z,97871.56
2022-11-14T13:16:49.155Z,97863.22
2022-11-14T13:20:04.291Z,97866.16
2022-11-14T13:22:50.343Z,97858.06
2022-11-14T13:25:36.175Z,97858.13
2022-11-14T13:28:51.238Z,97855.78
2022-11-14T13:31:37.116Z,97854.22
2022-11-14T13:35:00.769Z,97857.69
2022-11-14T13:38:01.725Z,97851.03
2022-11-14T13:41:24.016Z,97850.53
2022-11-14T13:44:24.772Z,97846.81
2022-11-14T13:47:47.614Z,97853.19
2022-11-14T13:50:40.563Z,97855.25
2022-11-14T13:53:30.333Z,97846.00
2022-11-14T13:56:43.554Z,97843.59
2022-11-14T14:00:18.364Z,97837.47
2022-11-14T14:03:23.644Z,97843.00
2022-11-14T14:06:20.012Z,97837.19
2022-11-14T14:09:28.748Z,97843.22
2022-11-14T14:12:42.383Z,97849.84
2022-11-14T14:15:48.319Z,97845.09
2022-11-14T14:18:58.821Z,97848.75
2022-11-14T14:22:25.845Z,97839.22
2022-11-14T14:25:26.787Z,97834.94
2022-11-14T14:28:31.944Z,97841.72
2022-11-14T14:31:25.036Z,97837.63
2022-11-14T14:34:29.067Z,97841.28
2022-11-14T14:37:21.653Z,97830.63
2022-11-14T14:40:43.166Z,97825.03
2022-11-14T14:43:35.786Z,97825.41
2022-11-14T14:46:33.648Z,97824.78
2022-11-14T14:49:35.311Z,97817.19
2022-11-14T14:52:33.032Z,97819.03
2022-11-14T14:55:29.125Z,97822.59
2022-11-14T14:58:30.566Z,97825.69
2022-11-14T15:01:21.435Z,97823.00
2022-11-14T15:04:13.525Z,97819.28
2022-11-14T15:06:59.714Z,97821.38
2022-11-14T15:09:57.939Z,97819.66
2022-11-14T15:12:44.748Z,97818.44
2022-11-14T15:15:31.851Z,97814.00
2022-11-14T15:18:29.833Z,97825.16
2022-11-14T15:21:25.097Z,97806.84
2022-11-14T15:24:20.559Z,97809.81
2022-11-14T15:27:19.382Z,97810.81
2022-11-14T15:30:19.632Z,97815.16
2022-11-14T15:33:25.804Z,97814.03
2022-11-14T15:36:19.752Z,97811.78
2022-11-14T15:39:28.671Z,97818.78
2022-11-14T15:42:28.932Z,97812.00
2022-11-14T15:45:26.902Z,97815.44
2022-11-14T15:48:19.160Z,97813.00
2022-11-14T15:51:05.430Z,97815.44
2022-11-14T15:53:53.511Z,97812.97
2022-11-14T15:56:39.263Z,97813.28
2022-11-14T15:59:27.641Z,97814.81
2022-11-14T16:02:21.975Z,97810.59
2022-11-14T16:05:12.602Z,97805.63
2022-11-14T16:07:58.272Z,97804.03
2022-11-14T16:10:44.253Z,97807.34
2022-11-14T16:13:30.399Z,97806.06
2022-11-14T16:16:16.459Z,97799.28
2022-11-14T16:19:02.444Z,97796.44
2022-11-14T16:21:48.540Z,97797.16
2022-11-14T16:24:34.586Z,97789.66
2022-11-14T16:27:20.389Z,97787.47
2022-11-14T16:30:06.755Z,97789.06
2022-11-14T16:32:53.014Z,97792.75
2022-11-14T16:35:38.779Z,97795.53
2022-11-14T16:38:24.515Z,97790.00
2022-11-14T16:41:13.350Z,97795.41
2022-11-14T16:43:59.502Z,97797.25
2022-11-14T16:46:45.922Z,97788.97
2022-11-14T16:49:31.323Z,97784.03
2022-11-14T16:52:17.209Z,97781.72
2022-11-14T16:55:02.909Z,97784.50
2022-11-14T16:57:49.390Z,97784.41
2022-11-14T17:00:35.925Z,97779.75
2022-11-14T17:03:22.449Z,97781.53
2022-11-14T17:06:12.644Z,97780.88
2022-11-14T17:09:00.217Z,97778.84
2022-11-14T17:11:45.953Z,97784.88
2022-11-14T17:14:31.699Z,97782.00
2022-11-14T17:17:18.168Z,97781.78
2022-11-14T17:20:04.585Z,97780.81
2022-11-14T17:22:50.422Z,97771.97
2022-11-14T17:25:36.683Z,97765.50
2022-11-14T17:28:22.811Z,97766.88
2022-11-14T17:31:09.481Z,97766.97
2022-11-14T17:33:58.335Z,97764.88
2022-11-14T17:36:43.824Z,97760.66
2022-11-14T17:39:29.989Z,97762.59
2022-11-14T17:42:15.971Z,97758.13
2022-11-14T17:45:02.144Z,97755.47
2022-11-14T17:47:48.010Z,97748.16
2022-11-14T17:50:37.633Z,97751.72
2022-11-14T17:53:23.751Z,97761.78
2022-11-14T17:56:19.628Z,97747.66
2022-11-14T17:59:05.524Z,97740.34
2022-11-14T18:01:52.418Z,97743.13
2022-11-14T18:04:38.536Z,97745.19
2022-11-14T18:07:24.659Z,97737.69
2022-11-14T18:10:10.467Z,97739.34
2022-11-14T18:12:56.592Z,97741.41
2022-11-14T18:15:42.773Z,97740.94
2022-11-14T18:18:34.514Z,97736.97
2022-11-14T18:21:24.634Z,97738.50
2022-11-14T18:24:14.128Z,97740.88
2022-11-14T18:27:00.003Z,97736.44
2022-11-14T18:29:46.210Z,97733.81
2022-11-14T18:32:32.025Z,97723.59
2022-11-14T18:35:18.046Z,97728.50
2022-11-14T18:38:04.193Z,97724.03
2022-11-14T18:40:55.831Z,97724.22
2022-11-14T18:43:44.652Z,97721.22
2022-11-14T18:46:37.151Z,97720.50
2022-11-14T18:49:23.625Z,97731.00
2022-11-14T18:52:14.198Z,97725.97
2022-11-14T18:55:04.242Z,97728.63
2022-11-14T18:57:49.757Z,97729.31
2022-11-14T19:00:36.025Z,97726.88
2022-11-14T19:03:22.205Z,97731.00
2022-11-14T19:06:12.121Z,97724.97
2022-11-14T19:09:13.599Z,97723.63
2022-11-14T19:12:17.662Z,97731.66
2022-11-14T19:15:03.591Z,97723.13
2022-11-14T19:17:49.486Z,97726.69
2022-11-14T19:20:35.303Z,97723.19
2022-11-14T19:23:21.542Z,97723.75
2022-11-14T19:26:07.363Z,97714.13
2022-11-14T19:28:53.281Z,97721.81
2022-11-14T19:31:39.933Z,97708.28
2022-11-14T19:34:25.929Z,97715.19
2022-11-14T19:37:11.869Z,97712.03
2022-11-14T19:39:57.751Z,97712.25
2022-11-14T19:42:43.671Z,97711.50
2022-11-14T19:45:33.407Z,97713.03
2022-11-14T19:48:19.220Z,97708.94
2022-11-14T19:51:09.714Z,97713.16
2022-11-14T19:53:58.387Z,97707.13
2022-11-14T19:56:44.506Z,97710.66
2022-11-14T19:59:30.367Z,97711.69
2022-11-14T20:02:17.284Z,97703.59
2022-11-14T20:05:03.255Z,97711.59
2022-11-14T20:07:49.077Z,97703.78
2022-11-14T20:10:47.599Z,97703.78
2022-11-14T20:13:40.334Z,97703.34
2022-11-14T20:16:29.810Z,97696.81
2022-11-14T20:19:16.250Z,97697.44
2022-11-14T20:22:02.428Z,97691.84
2022-11-14T20:24:48.656Z,97687.25
2022-11-14T20:27:34.391Z,97682.47
2022-11-14T20:30:20.209Z,97685.53
2022-11-14T20:33:07.779Z,97672.81
2022-11-14T20:35:53.933Z,97674.22
2022-11-14T20:38:39.688Z,97671.44
2022-11-14T20:41:25.880Z,97671.31
2022-11-14T20:44:11.836Z,97666.06
2022-11-14T20:46:57.808Z,97658.31
2022-11-14T20:49:44.423Z,97652.38
2022-11-14T20:52:31.049Z,97653.88
2022-11-14T20:55:17.347Z,97652.00
2022-11-14T20:58:03.441Z,97650.22
2022-11-14T21:00:52.967Z,97641.25
2022-11-14T21:03:39.934Z,97644.84
2022-11-14T21:06:25.904Z,97643.50
2022-11-14T21:09:11.543Z,97629.94
2022-11-14T21:11:57.566Z,97631.50
2022-11-14T21:14:43.079Z,97632.09
2022-11-14T21:17:28.895Z,97625.09
2022-11-14T21:20:15.001Z,97628.47
2022-11-14T21:23:00.854Z,97626.50
2022-11-14T21:25:46.503Z,97617.31
2022-11-14T21:28:34.112Z,97608.91
2022-11-14T21:31:27.152Z,97609.06
2022-11-14T21:34:16.741Z,97613.56
2022-11-14T21:37:02.332Z,97619.53
2022-11-14T21:39:49.052Z,97618.31
2022-11-14T21:42:36.653Z,97623.66
2022-11-14T21:45:22.548Z,97622.63
2022-11-14T21:48:08.320Z,97620.34
2022-11-14T21:50:53.918Z,97616.75
2022-11-14T21:53:41.024Z,97616.78
2022-11-14T21:56:30.340Z,97618.25
2022-11-14T21:59:18.984Z,97620.72
2022-11-14T22:02:23.434Z,97620.41
2022-11-14T22:05:09.053Z,97617.44
2022-11-14T22:07:54.929Z,97620.72
2022-11-14T22:10:41.094Z,97618.56
2022-11-14T22:13:30.499Z,97615.50
2022-11-14T22:16:21.013Z,97609.84
2022-11-14T22:19:07.017Z,97613.72
2022-11-14T22:21:53.080Z,97617.50
2022-11-14T22:24:39.050Z,97617.16
2022-11-14T22:27:26.034Z,97619.75
2022-11-14T22:30:12.238Z,97617.50
2022-11-14T22:33:00.418Z,97625.50
2022-11-14T22:35:46.533Z,97625.34
2022-11-14T22:38:36.587Z,97613.22
2022-11-14T22:41:32.704Z,97614.75
2022-11-14T22:44:19.080Z,97617.03
2022-11-14T22:47:04.906Z,97615.25
2022-11-14T22:49:50.770Z,97622.19
2022-11-14T22:52:36.810Z,97619.91
2022-11-14T22:55:22.488Z,97616.28
2022-11-14T22:58:08.696Z,97611.81
2022-11-14T23:00:54.483Z,97609.53
2022-11-14T23:03:40.964Z,97611.41
2022-11-14T23:06:28.606Z,97620.09
2022-11-14T23:09:14.543Z,97613.69
2022-11-14T23:12:00.558Z,97604.22
2022-11-14T23:14:46.283Z,97606.31
2022-11-14T23:17:32.729Z,97605.19
2022-11-14T23:20:18.890Z,97603.47
2022-11-14T23:23:05.906Z,97600.94
2022-11-14T23:25:51.795Z,97604.94
2022-11-14T23:28:38.161Z,97599.59
2022-11-14T23:31:25.228Z,97602.97
2022-11-14T23:34:10.958Z,97600.63
2022-11-14T23:36:56.646Z,97602.44
2022-11-14T23:39:42.715Z,97596.94
2022-11-14T23:42:28.710Z,97597.69
2022-11-14T23:45:14.380Z,97596.53
2022-11-14T23:47:59.886Z,97594.81
2022-11-14T23:50:54.120Z,97600.06
2022-11-14T23:53:40.244Z,97600.19
2022-11-14T23:56:26.307Z,97598.50
2022-11-14T23:59:11.960Z,97597.59
